createdAt,value
2019-02-07T00:02:16.055Z,37.30
2019-02-07T00:04:47.730Z,37.40
2019-02-07T00:07:19.296Z,36.13
2019-02-07T00:09:50.999Z,38.83
2019-02-07T00:12:22.650Z,37.47
2019-02-07T00:14:54.289Z,35.90
2019-02-07T00:17:25.840Z,34.13
2019-02-07T00:19:57.645Z,35.30
2019-02-07T00:22:29.213Z,35.03
2019-02-07T00:25:01.010Z,34.03
2019-02-07T00:27:32.917Z,34.70
2019-02-07T00:30:05.249Z,31.90
2019-02-07T00:32:36.822Z,36.17
2019-02-07T00:35:09.250Z,31.33
2019-02-07T00:37:40.802Z,31.77
2019-02-07T00:40:14.617Z,34.90
2019-02-07T00:42:46.845Z,32.13
2019-02-07T00:45:18.426Z,33.00
2019-02-07T00:47:50.251Z,30.20
2019-02-07T00:50:21.938Z,32.07
2019-02-07T00:52:53.438Z,31.37
2019-02-07T00:55:25.870Z,30.33
2019-02-07T00:57:57.612Z,31.03
2019-02-07T01:00:29.275Z,28.43
2019-02-07T01:03:00.776Z,32.40
2019-02-07T01:05:32.466Z,30.67
2019-02-07T01:08:04.650Z,29.47
2019-02-07T01:10:53.943Z,31.87
2019-02-07T01:13:43.408Z,31.10
2019-02-07T01:16:14.930Z,33.40
2019-02-07T01:18:46.570Z,35.13
2019-02-07T01:21:18.269Z,33.60
2019-02-07T01:23:49.749Z,34.70
2019-02-07T01:26:21.788Z,34.30
2019-02-07T01:28:53.548Z,35.37
2019-02-07T01:31:25.322Z,35.57
2019-02-07T01:33:56.864Z,35.90
2019-02-07T01:36:28.617Z,34.50
2019-02-07T01:39:00.121Z,34.03
2019-02-07T01:41:31.837Z,35.77
2019-02-07T01:44:03.387Z,37.17
2019-02-07T01:46:34.854Z,34.87
2019-02-07T01:49:06.360Z,36.90
2019-02-07T01:51:38.132Z,36.57
2019-02-07T01:54:09.590Z,35.70
2019-02-07T01:56:41.115Z,40.60
2019-02-07T01:59:12.814Z,37.73
2019-02-07T02:01:44.398Z,38.47
2019-02-07T02:04:15.873Z,36.43
2019-02-07T02:06:47.674Z,38.97
2019-02-07T02:09:19.207Z,36.80
2019-02-07T02:11:50.783Z,37.30
2019-02-07T02:14:24.308Z,35.90
2019-02-07T02:16:55.901Z,36.83
2019-02-07T02:19:27.469Z,37.93
2019-02-07T02:21:59.101Z,37.73
2019-02-07T02:24:30.600Z,37.50
2019-02-07T02:27:02.158Z,35.30
2019-02-07T02:29:33.991Z,36.53
2019-02-07T02:32:05.778Z,38.47
2019-02-07T02:34:37.290Z,35.70
2019-02-07T02:37:08.984Z,36.73
2019-02-07T02:39:40.735Z,35.73
2019-02-07T02:42:12.443Z,36.33
2019-02-07T02:44:43.932Z,36.73
2019-02-07T02:47:15.613Z,37.33
2019-02-07T02:49:47.190Z,35.87
2019-02-07T02:52:18.733Z,37.50
2019-02-07T02:54:53.433Z,38.67
2019-02-07T02:57:27.843Z,37.40
2019-02-07T02:59:59.653Z,38.60
2019-02-07T03:02:51.560Z,35.80
2019-02-07T03:05:45.070Z,36.90
2019-02-07T03:08:34.197Z,37.67
2019-02-07T03:11:23.921Z,36.80
2019-02-07T03:14:13.449Z,36.87
2019-02-07T03:17:22.884Z,35.83
2019-02-07T03:20:13.388Z,34.17
2019-02-07T03:23:22.086Z,34.53
2019-02-07T03:26:12.724Z,33.57
2019-02-07T03:29:01.880Z,34.93
2019-02-07T03:31:51.265Z,34.30
2019-02-07T03:34:40.716Z,33.33
2019-02-07T03:37:22.193Z,34.50
2019-02-07T03:40:27.863Z,33.70
2019-02-07T03:43:18.371Z,32.13
2019-02-07T03:46:11.971Z,29.60
2019-02-07T03:48:59.586Z,29.43
2019-02-07T03:51:48.713Z,28.70
2019-02-07T03:54:37.678Z,30.23
2019-02-07T03:57:40.407Z,28.10
2019-02-07T04:00:38.462Z,29.53
2019-02-07T04:03:39.859Z,27.33
2019-02-07T04:06:39.499Z,28.67
2019-02-07T04:09:35.853Z,26.00
2019-02-07T04:12:29.733Z,25.33
2019-02-07T04:15:18.970Z,24.63
2019-02-07T04:18:17.117Z,24.90
2019-02-07T04:21:07.445Z,24.77
2019-02-07T04:23:48.481Z,23.10
2019-02-07T04:26:47.929Z,24.37
2019-02-07T04:29:44.719Z,21.83
2019-02-07T04:32:38.100Z,22.70
2019-02-07T04:35:37.669Z,23.97
2019-02-07T04:38:38.045Z,21.33
2019-02-07T04:41:31.492Z,22.30
2019-02-07T04:44:20.449Z,22.27
2019-02-07T04:47:09.735Z,22.63
2019-02-07T04:50:06.031Z,22.67
2019-02-07T04:53:05.273Z,21.97
2019-02-07T04:55:56.143Z,24.20
2019-02-07T04:58:36.990Z,22.03
2019-02-07T05:01:27.959Z,23.23
2019-02-07T05:04:27.664Z,23.90
2019-02-07T05:07:05.945Z,19.97
2019-02-07T05:09:59.145Z,21.47
2019-02-07T05:12:48.387Z,21.70
2019-02-07T05:15:39.026Z,21.40
2019-02-07T05:18:27.948Z,19.77
2019-02-07T05:21:18.570Z,23.17
2019-02-07T05:24:26.966Z,21.13
2019-02-07T05:27:20.662Z,23.80
2019-02-07T05:30:10.519Z,22.80
2019-02-07T05:32:58.239Z,23.87
2019-02-07T05:35:58.088Z,24.67
2019-02-07T05:38:48.665Z,27.87
2019-02-07T05:41:33.826Z,26.67
2019-02-07T05:44:14.651Z,33.73
2019-02-07T05:47:03.549Z,37.90
2019-02-07T05:50:09.401Z,42.03
2019-02-07T05:52:52.622Z,38.33
2019-02-07T05:55:42.266Z,33.87
2019-02-07T05:58:38.356Z,26.97
2019-02-07T06:01:17.645Z,24.60
2019-02-07T06:04:01.414Z,25.07
2019-02-07T06:06:55.033Z,27.43
2019-02-07T06:09:49.067Z,36.50
2019-02-07T06:12:38.390Z,32.23
2019-02-07T06:15:37.604Z,25.90
2019-02-07T06:18:24.498Z,22.27
2019-02-07T06:21:15.154Z,22.63
2019-02-07T06:24:11.644Z,20.93
2019-02-07T06:26:54.319Z,20.23
2019-02-07T06:29:43.636Z,20.60
2019-02-07T06:32:36.845Z,19.67
2019-02-07T06:35:33.282Z,21.07
2019-02-07T06:38:15.712Z,18.93
2019-02-07T06:41:05.026Z,20.90
2019-02-07T06:43:54.223Z,20.20
2019-02-07T06:46:38.223Z,18.63
2019-02-07T06:49:35.129Z,17.27
2019-02-07T06:52:31.526Z,17.07
2019-02-07T06:55:20.367Z,17.73
2019-02-07T06:58:11.211Z,18.27
2019-02-07T07:01:13.983Z,17.13
2019-02-07T07:04:04.669Z,17.30
2019-02-07T07:06:53.981Z,16.97
2019-02-07T07:09:43.220Z,16.07
2019-02-07T07:12:33.531Z,16.00
2019-02-07T07:15:15.503Z,18.00
2019-02-07T07:18:06.434Z,16.80
2019-02-07T07:20:51.739Z,17.43
2019-02-07T07:25:59.922Z,17.30
2019-02-07T07:28:59.501Z,16.87
2019-02-07T07:32:05.599Z,16.10
2019-02-07T07:35:05.123Z,17.33
2019-02-07T07:37:55.543Z,16.17
2019-02-07T07:41:04.094Z,15.60
2019-02-07T07:43:57.616Z,14.40
2019-02-07T07:46:47.933Z,16.17
2019-02-07T07:49:32.142Z,14.63
2019-02-07T07:52:25.463Z,16.40
2019-02-07T07:55:28.389Z,15.17
2019-02-07T07:58:21.729Z,14.00
2019-02-07T08:01:18.086Z,16.07
2019-02-07T08:04:08.546Z,14.57
2019-02-07T08:07:11.057Z,12.83
2019-02-07T08:10:04.344Z,14.23
2019-02-07T08:12:59.795Z,14.03
2019-02-07T08:15:49.021Z,15.00
2019-02-07T08:18:48.469Z,15.10
2019-02-07T08:21:37.629Z,15.50
2019-02-07T08:24:24.773Z,14.03
2019-02-07T08:27:21.330Z,14.47
2019-02-07T08:30:10.661Z,14.57
2019-02-07T08:33:07.024Z,15.17
2019-02-07T08:36:06.564Z,14.03
2019-02-07T08:38:55.463Z,15.00
2019-02-07T08:41:36.567Z,13.60
2019-02-07T08:44:39.105Z,13.87
2019-02-07T08:47:20.508Z,14.83
2019-02-07T08:50:29.425Z,15.37
2019-02-07T08:53:31.822Z,14.40
2019-02-07T08:56:14.757Z,13.60
2019-02-07T08:59:03.844Z,14.10
2019-02-07T09:01:44.191Z,16.13
2019-02-07T09:04:34.514Z,14.73
2019-02-07T09:07:15.974Z,13.67
2019-02-07T09:10:04.776Z,14.30
2019-02-07T09:12:55.248Z,13.93
2019-02-07T09:15:49.230Z,15.17
2019-02-07T09:18:38.568Z,13.33
2019-02-07T09:21:27.935Z,14.20
2019-02-07T09:24:16.864Z,13.83
2019-02-07T09:27:02.702Z,14.87
2019-02-07T09:29:59.370Z,15.37
2019-02-07T09:32:49.628Z,13.43
2019-02-07T09:35:39.447Z,14.30
2019-02-07T09:38:36.544Z,14.17
2019-02-07T09:41:36.879Z,14.17
2019-02-07T09:44:26.096Z,12.80
2019-02-07T09:47:20.814Z,13.80
2019-02-07T09:50:18.109Z,13.60
2019-02-07T09:53:23.418Z,12.93
2019-02-07T09:55:57.600Z,13.00
2019-02-07T09:58:47.713Z,12.90
2019-02-07T10:01:26.791Z,15.30
2019-02-07T10:04:17.120Z,13.27
2019-02-07T10:07:16.332Z,13.77
2019-02-07T10:10:16.166Z,14.93
2019-02-07T10:13:06.597Z,12.47
2019-02-07T10:15:54.783Z,12.37
2019-02-07T10:18:43.783Z,11.87
2019-02-07T10:21:24.126Z,12.77
2019-02-07T10:24:23.816Z,12.67
2019-02-07T10:27:23.335Z,13.10
2019-02-07T10:30:25.814Z,15.13
2019-02-07T10:33:15.294Z,14.30
2019-02-07T10:36:08.854Z,13.73
2019-02-07T10:39:05.075Z,15.17
2019-02-07T10:41:55.463Z,15.60
2019-02-07T10:44:44.702Z,14.03
2019-02-07T10:47:33.603Z,14.50
2019-02-07T10:50:37.430Z,12.80
2019-02-07T10:53:33.570Z,13.93
2019-02-07T10:56:15.853Z,15.17
2019-02-07T10:59:06.272Z,15.07
2019-02-07T11:01:55.934Z,14.27
2019-02-07T11:04:46.283Z,15.00
2019-02-07T11:07:36.698Z,15.30
2019-02-07T11:10:29.099Z,15.27
2019-02-07T11:13:19.992Z,15.23
2019-02-07T11:16:09.368Z,14.37
2019-02-07T11:19:00.387Z,12.90
2019-02-07T11:21:53.616Z,13.77
2019-02-07T11:24:48.042Z,14.40
2019-02-07T11:27:37.068Z,12.10
2019-02-07T11:30:31.574Z,13.57
2019-02-07T11:33:33.909Z,14.13
2019-02-07T11:36:35.296Z,13.40
2019-02-07T11:39:29.788Z,13.77
2019-02-07T11:42:38.844Z,13.00
2019-02-07T11:45:31.004Z,12.57
2019-02-07T11:48:15.849Z,13.93
2019-02-07T11:50:55.905Z,17.97
2019-02-07T11:53:45.472Z,14.33
2019-02-07T11:56:25.952Z,15.67
2019-02-07T11:59:19.401Z,14.97
2019-02-07T12:02:09.783Z,16.00
2019-02-07T12:05:00.990Z,14.87
2019-02-07T12:08:07.386Z,15.80
2019-02-07T12:11:04.115Z,15.83
2019-02-07T12:13:54.540Z,17.67
2019-02-07T12:16:43.982Z,15.67
2019-02-07T12:19:31.547Z,14.60
2019-02-07T12:22:37.335Z,14.47
2019-02-07T12:25:26.763Z,13.60
2019-02-07T12:28:17.461Z,14.37
2019-02-07T12:31:19.867Z,15.33
2019-02-07T12:34:07.163Z,16.27
2019-02-07T12:37:05.495Z,15.47
2019-02-07T12:39:59.205Z,14.97
2019-02-07T12:42:48.157Z,16.03
2019-02-07T12:45:51.056Z,13.27
2019-02-07T12:48:40.172Z,13.40
2019-02-07T12:51:30.613Z,14.93
2019-02-07T12:54:19.547Z,14.80
2019-02-07T12:57:09.058Z,13.93
2019-02-07T13:00:05.573Z,16.03
2019-02-07T13:02:46.215Z,15.63
2019-02-07T13:05:36.256Z,16.43
2019-02-07T13:08:26.795Z,15.40
2019-02-07T13:11:15.760Z,16.43
2019-02-07T13:14:15.233Z,15.13
2019-02-07T13:17:14.779Z,15.03
2019-02-07T13:19:55.735Z,15.50
2019-02-07T13:22:47.086Z,16.17
2019-02-07T13:25:36.340Z,15.70
2019-02-07T13:28:25.505Z,15.10
2019-02-07T13:31:20.919Z,16.10
2019-02-07T13:34:21.369Z,16.20
2019-02-07T13:37:08.764Z,14.50
2019-02-07T13:40:10.325Z,17.53
2019-02-07T13:43:12.642Z,16.10
2019-02-07T13:45:55.355Z,15.37
2019-02-07T13:48:58.069Z,15.27
2019-02-07T13:52:00.192Z,16.47
2019-02-07T13:54:49.413Z,15.77
2019-02-07T13:57:49.453Z,16.67
2019-02-07T14:00:45.029Z,15.27
2019-02-07T14:03:28.580Z,16.67
2019-02-07T14:06:13.286Z,17.53
2019-02-07T14:09:15.686Z,21.13
2019-02-07T14:12:18.647Z,24.80
2019-02-07T14:15:06.977Z,24.17
2019-02-07T14:17:58.211Z,26.90
2019-02-07T14:20:48.674Z,22.70
2019-02-07T14:23:37.909Z,20.47
2019-02-07T14:26:32.662Z,22.00
2019-02-07T14:29:21.888Z,20.83
2019-02-07T14:32:12.819Z,18.87
2019-02-07T14:35:00.976Z,19.10
2019-02-07T14:38:04.046Z,17.93
2019-02-07T14:40:57.405Z,21.93
2019-02-07T14:43:41.670Z,22.77
2019-02-07T14:46:32.528Z,19.90
2019-02-07T14:49:04.280Z,19.47
2019-02-07T14:51:35.753Z,19.33
2019-02-07T14:54:07.344Z,19.00
2019-02-07T14:56:38.936Z,18.00
2019-02-07T14:59:10.533Z,18.20
2019-02-07T15:01:42.070Z,19.27
2019-02-07T15:04:13.691Z,19.07
2019-02-07T15:06:45.161Z,18.27
2019-02-07T15:09:20.074Z,19.80
2019-02-07T15:11:51.885Z,20.67
2019-02-07T15:14:23.644Z,21.27
2019-02-07T15:16:55.142Z,22.80
2019-02-07T15:19:26.883Z,20.93
2019-02-07T15:21:58.403Z,18.30
2019-02-07T15:24:30.200Z,18.37
2019-02-07T15:27:01.837Z,17.53
2019-02-07T15:29:33.721Z,15.10
2019-02-07T15:32:05.530Z,16.83
2019-02-07T15:34:37.077Z,16.03
2019-02-07T15:37:08.559Z,18.50
2019-02-07T15:39:40.329Z,18.20
2019-02-07T15:42:12.363Z,17.73
2019-02-07T15:44:44.134Z,19.13
2019-02-07T15:47:15.666Z,19.87
2019-02-07T15:49:48.244Z,19.07
2019-02-07T15:52:19.754Z,19.30
2019-02-07T15:54:51.308Z,17.57
2019-02-07T15:57:23.162Z,20.40
2019-02-07T15:59:58.113Z,19.73
2019-02-07T16:02:39.306Z,17.30
2019-02-07T16:05:13.474Z,17.53
2019-02-07T16:07:45.090Z,17.33
2019-02-07T16:10:18.176Z,17.77
2019-02-07T16:12:50.140Z,18.90
2019-02-07T16:15:21.794Z,22.13
2019-02-07T16:17:53.504Z,27.73
2019-02-07T16:20:25.477Z,31.93
2019-02-07T16:22:58.980Z,31.00
2019-02-07T16:25:30.765Z,26.77
2019-02-07T16:28:02.555Z,27.40
2019-02-07T16:30:34.584Z,27.93
2019-02-07T16:33:06.617Z,25.07
2019-02-07T16:35:38.405Z,25.87
2019-02-07T16:38:09.993Z,24.03
2019-02-07T16:40:41.785Z,25.97
2019-02-07T16:43:13.847Z,26.07
2019-02-07T16:45:46.052Z,25.37
2019-02-07T16:48:17.661Z,23.30
2019-02-07T16:50:59.673Z,24.23
2019-02-07T16:53:22.717Z,22.83
2019-02-07T16:55:54.414Z,25.70
2019-02-07T16:58:26.584Z,25.20
2019-02-07T17:00:58.544Z,24.90
2019-02-07T17:03:30.201Z,29.47
2019-02-07T17:06:01.959Z,30.87
2019-02-07T17:08:33.518Z,25.10
2019-02-07T17:11:05.491Z,28.10
2019-02-07T17:13:36.997Z,29.13
2019-02-07T17:16:08.810Z,25.20
2019-02-07T17:18:40.365Z,28.33
2019-02-07T17:21:12.914Z,29.53
2019-02-07T17:23:44.755Z,25.37
2019-02-07T17:26:16.520Z,23.67
2019-02-07T17:28:48.626Z,24.33
2019-02-07T17:31:20.442Z,21.70
2019-02-07T17:33:51.941Z,23.40
2019-02-07T17:36:23.638Z,23.40
2019-02-07T17:38:55.332Z,24.40
2019-02-07T17:41:27.165Z,24.33
2019-02-07T17:43:59.386Z,23.67
2019-02-07T17:46:31.277Z,23.87
2019-02-07T17:49:03.375Z,22.60
2019-02-07T17:51:35.063Z,23.33
2019-02-07T17:54:06.756Z,21.97
2019-02-07T17:56:38.515Z,23.63
2019-02-07T17:59:10.095Z,21.37
2019-02-07T18:01:42.173Z,22.57
2019-02-07T18:04:13.929Z,19.93
2019-02-07T18:06:45.838Z,20.67
2019-02-07T18:09:17.461Z,18.23
2019-02-07T18:11:49.095Z,19.43
2019-02-07T18:14:21.263Z,22.70
2019-02-07T18:16:52.990Z,23.63
2019-02-07T18:19:24.586Z,23.03
2019-02-07T18:21:57.326Z,21.63
2019-02-07T18:24:29.351Z,22.47
2019-02-07T18:27:01.735Z,20.40
2019-02-07T18:29:33.770Z,19.43
2019-02-07T18:32:05.877Z,20.60
2019-02-07T18:34:37.514Z,20.63
2019-02-07T18:37:09.671Z,20.60
2019-02-07T18:39:41.314Z,18.57
2019-02-07T18:42:13.132Z,22.70
2019-02-07T18:44:44.919Z,28.07
2019-02-07T18:47:16.917Z,29.53
2019-02-07T18:49:48.552Z,25.10
2019-02-07T18:52:20.753Z,21.17
2019-02-07T18:54:52.408Z,23.17
2019-02-07T18:57:24.417Z,23.97
2019-02-07T18:59:56.705Z,21.50
2019-02-07T19:02:28.506Z,22.07
2019-02-07T19:05:00.414Z,24.23
2019-02-07T19:07:32.337Z,21.67
2019-02-07T19:10:04.582Z,23.13
2019-02-07T19:12:36.658Z,24.83
2019-02-07T19:15:13.476Z,22.47
2019-02-07T19:17:45.332Z,27.73
2019-02-07T19:20:19.009Z,26.63
2019-02-07T19:22:50.858Z,27.20
2019-02-07T19:25:22.602Z,28.83
2019-02-07T19:27:54.690Z,34.03
2019-02-07T19:30:31.196Z,32.43
2019-02-07T19:33:03.179Z,28.27
2019-02-07T19:35:34.759Z,24.47
2019-02-07T19:38:06.958Z,28.67
2019-02-07T19:40:39.036Z,27.23
2019-02-07T19:43:10.910Z,25.00
2019-02-07T19:45:42.658Z,23.83
2019-02-07T19:48:14.312Z,21.33
2019-02-07T19:50:46.189Z,24.30
2019-02-07T19:53:17.743Z,22.93
